PWSweather.com
Personal Weather Stations
Station Observations

AwhituWaiuku, CA 268400

Lat: -37.058, Lon: -174.6346

Elevation: 250

Station Type: Personal

http://www.weather-display.com/windy/gb/grahamsbeach.htm

Latest ConditionsUpdated 1:00:02 PM GMT-12:48 Monday, Mar 25, 2019
Currently Today's Max Today's Min Today's Average
Temperature 76.8°F24.9°C 76.8°F24.9°C 62.0°F16.7°C 66.7°F19.3°C
Dew Point 60.9°F16.1°C 61.7°F16.5°C 58.1°F14.5°C 59.7°F15.4°C
Winds 5.8 mph NNE9.3 kmh NNE 13.8 mph -22.2 kmh - - 4.9 mph 7.9 kmh
Wind Gusts 10.4 mph16.7 kmh 17.3 mph27.8 kmh - -
Humidity 58% 90% 58% 79%
Pressure 30.21 in1023.0 mb 30.32 in1026.8 mb 30.21 in1023.0 mb -
Hour Temp Dew Point Humidity Winds Wind Gusts Pressure Precip Precip Rate Daily Precip Total
01:00 PM 76.8°F24.9°C 60.9°F16.1°C 58% 5.8 mph NNE9.3 kmh NNE 10.4 mph16.7 kmh 30.21 in1023.0 mb - 0.00 in0.0 mm 0.00 in0.0 mm
12:30 PM 75.6°F24.2°C 59.8°F15.4°C 58% 12.7 mph N20.4 kmh N 17.3 mph27.8 kmh 30.22 in1023.4 mb - 0.00 in0.0 mm 0.00 in0.0 mm
12:00 PM 74.7°F23.7°C 60.8°F16.0°C 62% 3.5 mph E5.6 kmh E 5.8 mph9.3 kmh 30.22 in1023.4 mb - 0.00 in0.0 mm 0.00 in0.0 mm
11:30 AM 75.2°F24.0°C 60.8°F16.0°C 61% 8.1 mph N13.0 kmh N 16.1 mph25.9 kmh 30.23 in1023.7 mb - 0.00 in0.0 mm 0.00 in0.0 mm
11:00 AM 74.2°F23.4°C 61.2°F16.2°C 64% 13.8 mph N22.2 kmh N 15.0 mph24.1 kmh 30.25 in1024.4 mb - 0.00 in0.0 mm 0.00 in0.0 mm
10:30 AM 73.4°F23.0°C 61.7°F16.5°C 67% 6.9 mph NW11.1 kmh NW 9.2 mph14.8 kmh 30.26 in1024.7 mb - 0.00 in0.0 mm 0.00 in0.0 mm
10:00 AM 72.1°F22.3°C 61.3°F16.3°C 69% 8.1 mph NNE13.0 kmh NNE 11.5 mph18.5 kmh 30.26 in1024.7 mb - 0.00 in0.0 mm 0.00 in0.0 mm
09:30 AM 70.8°F21.6°C 61.3°F16.3°C 72% 9.2 mph N14.8 kmh N 16.1 mph25.9 kmh 30.27 in1025.1 mb - 0.00 in0.0 mm 0.00 in0.0 mm
09:00 AM 69.7°F20.9°C 61.1°F16.2°C 74% 4.6 mph NW7.4 kmh NW 9.2 mph14.8 kmh 30.28 in1025.4 mb - 0.00 in0.0 mm 0.00 in0.0 mm
08:30 AM 67.9°F19.9°C 61.1°F16.2°C 79% 5.8 mph NNW9.3 kmh NNW 10.4 mph16.7 kmh 30.28 in1025.4 mb - 0.00 in0.0 mm 0.00 in0.0 mm
08:00 AM 65.9°F18.8°C 60.6°F15.9°C 83% 6.9 mph N11.1 kmh N 9.2 mph14.8 kmh 30.28 in1025.4 mb - 0.00 in0.0 mm 0.00 in0.0 mm
07:30 AM 63.9°F17.7°C 59.7°F15.4°C 86% 6.9 mph N11.1 kmh N 9.2 mph14.8 kmh 30.28 in1025.4 mb - 0.00 in0.0 mm 0.00 in0.0 mm
07:00 AM 62.7°F17.1°C 59.1°F15.1°C 88% 6.9 mph NNE11.1 kmh NNE 9.2 mph14.8 kmh 30.27 in1025.1 mb - 0.00 in0.0 mm 0.00 in0.0 mm
06:30 AM 62.0°F16.7°C 59.1°F15.1°C 90% 3.5 mph NE5.6 kmh NE 3.5 mph5.6 kmh 30.27 in1025.1 mb - 0.00 in0.0 mm 0.00 in0.0 mm
06:00 AM 62.0°F16.7°C 59.0°F15.0°C 90% 2.3 mph NE3.7 kmh NE 3.5 mph5.6 kmh 30.26 in1024.7 mb - 0.00 in0.0 mm 0.00 in0.0 mm
05:30 AM 62.2°F16.8°C 58.6°F14.8°C 88% 2.3 mph NNE3.7 kmh NNE 4.6 mph7.4 kmh 30.26 in1024.7 mb - 0.00 in0.0 mm 0.00 in0.0 mm
05:00 AM 62.8°F17.1°C 59.2°F15.1°C 88% 3.5 mph NE5.6 kmh NE 4.6 mph7.4 kmh 30.26 in1024.7 mb - 0.00 in0.0 mm 0.00 in0.0 mm
04:30 AM 62.3°F16.8°C 58.7°F14.8°C 88% 4.6 mph NNE7.4 kmh NNE 5.8 mph9.3 kmh 30.26 in1024.7 mb - 0.00 in0.0 mm 0.00 in0.0 mm
04:00 AM 62.0°F16.7°C 58.4°F14.7°C 88% Calm Calm -- 30.27 in1025.1 mb - 0.00 in0.0 mm 0.00 in0.0 mm
03:30 AM 62.0°F16.7°C 58.1°F14.5°C 87% Calm Calm 1.2 mph1.9 kmh 30.27 in1025.1 mb - 0.00 in0.0 mm 0.00 in0.0 mm
03:00 AM 62.4°F16.9°C 58.2°F14.6°C 86% 2.3 mph N3.7 kmh N 3.5 mph5.6 kmh 30.28 in1025.4 mb - 0.00 in0.0 mm 0.00 in0.0 mm
02:30 AM 63.0°F17.2°C 58.7°F14.8°C 86% 3.5 mph NNE5.6 kmh NNE 4.6 mph7.4 kmh 30.29 in1025.7 mb - 0.00 in0.0 mm 0.00 in0.0 mm
02:00 AM 62.8°F17.1°C 58.5°F14.7°C 86% 1.2 mph N1.9 kmh N 3.5 mph5.6 kmh 30.30 in1026.1 mb - 0.00 in0.0 mm 0.00 in0.0 mm
01:30 AM 62.7°F17.1°C 58.5°F14.7°C 86% Calm Calm -- 30.31 in1026.4 mb - 0.00 in0.0 mm 0.00 in0.0 mm
01:00 AM 63.7°F17.6°C 59.1°F15.1°C 85% 3.5 mph N5.6 kmh N 4.6 mph7.4 kmh 30.31 in1026.4 mb - 0.00 in0.0 mm 0.00 in0.0 mm
12:30 AM 62.8°F17.1°C 58.5°F14.7°C 86% 2.3 mph N3.7 kmh N 3.5 mph5.6 kmh 30.32 in1026.8 mb - 0.00 in0.0 mm 0.00 in0.0 mm
12:00 AM 64.2°F17.9°C 59.3°F15.2°C 84% 4.6 mph N7.4 kmh N 4.6 mph7.4 kmh 30.31 in1026.4 mb - 0.00 in0.0 mm 0.00 in0.0 mm